Flight Track Log - Related Links

Times and Time Zones

All times are in EDT time to prevent confusion due to time zone crossing. See the PDT4147 flight status page for this flight to view local times or setup timezone preferences in your user account.

Time Position Orientation Groundspeed Altitude Reporting Facility
EDT Latitude Longitude Course Direction KTS MPH feet Rate Location/Type
Thu 04:36:00 PM 36.8190 -80.0220 176° South  Level FlightAware Approximate
Thu 04:37:00 PM 36.7558 -80.0171 176° South  Level FlightAware Approximate
Thu 04:38:00 PM 36.6925 -80.0152 177° South  Level FlightAware Approximate
Thu 04:39:00 PM 36.6293 -80.0112 177° South  Level FlightAware Approximate
Thu 04:40:00 PM 36.5660 -80.0072 177° South  Level FlightAware Approximate
Thu 04:41:00 PM 36.5028 -80.0033 177° South  Level FlightAware Approximate
Thu 04:42:00 PM 36.4396 -79.9987 174° South  Level FlightAware Approximate
Thu 04:43:00 PM 36.3766 -79.9908 174° South  Level FlightAware Approximate
Thu 04:44:00 PM 36.3136 -79.9831 177° South  Level FlightAware Approximate
Thu 04:45:00 PM 36.2503 -79.9794 177° South  Level FlightAware Approximate
Thu 04:46:00 PM 36.1871 -79.9757 177° South  Level FlightAware Approximate
Thu 04:47:00 PM 36.1238 -79.9720 177° South  Level FlightAware Approximate
Thu 04:48:00 PM 36.0775 -79.9693 177° South  Level FlightAware Approximate
Thu 04:49:00 PM 36.0319 -79.9687 230° Southwest  Level FlightAware Approximate
Thu 04:50:00 PM 36.0020 -80.0124 230° Southwest  Level FlightAware Approximate
Thu 04:51:00 PM 35.9720 -80.0562 230° Southwest  Level FlightAware Approximate
Thu 04:52:00 PM 35.9420 -80.0998 230° Southwest  Level FlightAware Approximate
Thu 04:53:00 PM 35.9119 -80.1435 230° Southwest  Level FlightAware Approximate
Thu 04:53:03 PM 35.9303 -80.4358 227° Southwest 255 293 8,400  Level Atlanta Center
Thu 04:53:59 PM 35.8708 -80.4717 206° Southwest 256 295 7,500 -976 Descending Atlanta Center
Thu 04:54:00 PM 35.8819 -80.1871 230° Southwest  Level FlightAware Approximate
Thu 04:55:00 PM 35.8518 -80.2307 230° Southwest  Level FlightAware Approximate
Thu 04:55:06 PM 35.7969 -80.5158 206° Southwest 256 295 6,400  Level Atlanta Center
Thu 04:56:00 PM 35.8194 -80.2716 225° Southwest  Level FlightAware Approximate
Thu 04:56:01 PM 35.7375 -80.5492 204° Southwest 246 283 6,000  Level Atlanta Center
Thu 04:57:00 PM 35.7869 -80.3123 225° Southwest  Level FlightAware Approximate
Thu 04:57:14 PM 35.6656 -80.5853 202° Southwest 237 273 6,000  Level Atlanta Center
Thu 04:58:00 PM 35.7553 -80.3541 227° Southwest  Level FlightAware Approximate
Thu 04:58:09 PM 35.6097 -80.6006 193° South 241 277 6,000  Level Atlanta Center
Thu 04:59:09 PM 35.5372 -80.6189 192° South 242 278 6,000  Level Atlanta Center
Thu 05:00:04 PM 35.4814 -80.6367 195° South 243 280 6,000  Level Atlanta Center
Thu 05:01:05 PM 35.4153 -80.6697 202° Southwest 240 276 6,000  Level Atlanta Center
Thu 05:02:06 PM 35.3711 -80.7250 226° Southwest 227 261 6,000 -639 Level Atlanta Center
Thu 05:03:07 PM 35.3369 -80.7775 231° Southwest 196 226 4,700 -1,377 Descending Atlanta Center
Thu 05:04:08 PM 35.3008 -80.8272 228° Southwest 188 216 3,200 -1,148 Descending Atlanta Center
Thu 05:05:02 PM 35.2725 -80.8639 227° Southwest 163 188 2,500 -843 Descending Atlanta Center
Thu 05:06:09 PM 35.2464 -80.9031 231° Southwest 114 131 1,500 -896 Descending Atlanta Center
Thu 05:08:00 PM 35.2000 -80.9333 209° Southwest  Level FlightAware Approximate
Thu 05:15:00 PM 35.2137 -80.9491 209° Southwest  Level Estimated

Login

Don't have an account? Register now (free) for customized features, flight alerts, and more!